Rogers, AR (72756)

4:31 AM CDT on May 28, 2015 (GMT -0500)
Little Flock | | Change Station
CLOSE
Current Station
Personal Weather Station
Location: Little Flock, AR
Elevation: 1293 ft
Nearby Weather Stations

Elev 1293 ft 36.39 °N, 94.14 °W | Updated 19 seconds ago

Clear
Clear
61.9 °F
Feels Like 61.9 °F
N
0.0
Wind Variable Wind from NNE
Gusts 2.0 mph

Today
High -- | Low -- °F
--% Chance of Precip.
Yesterday
High -- | Low -- °F
Precip. -- in
6:01 AM 8:25 PM
Waxing Gibbous, 74% visible
Pressure 30.07 in
Visibility 10.0 miles
Clouds Clear
Dew Point 61 °F
Humidity 96%
Rainfall 0.00 in
Snow Depth Not available.
UV 0 out of 12
Pollen 7.20 out of 12
Air Quality Not available.
Flu Activity No Activity
METAR KROG 280857Z AUTO 00000KT 10SM CLR 18/18 A3011 RMK AO2 SLP182 T01830178 56010 TSNO

More Conditions Fewer Conditions

Pressure 30.07 in
Visibility 10.0 miles
Clouds Clear
Dew Point 61 °F
Humidity 96%
Rainfall 0.00 in
Snow Depth Not available.
UV 0 out of 12
Pollen 7.20 out of 12
Air Quality Not available.
Flu Activity No Activity
METAR KROG 280857Z AUTO 00000KT 10SM CLR 18/18 A3011 RMK AO2 SLP182 T01830178 56010 TSNO

More Conditions Fewer Conditions

Nowcast | as of 3:47 am CDT on May 28, 2015

At 345 am Doppler radar indicated showers and scattered thunderstorms over far western Pawnee...far northwest Osage and extreme northern Washington counties. The showers and thunderstorms were moving northeast around 20 miles an hour. Through 530 am showers and thunderstorms will remain over northwest Osage and far western Pawnee counties and far northern Washington County near the Kansas border. Rainfall amounts ...Where it does rain...could reach up to one inch in the next two hours.

×

10-Day Weather Forecast

Almanac

Astronomy

May. 28, 2015 Rise Set
Actual Time
Civil Twilight
Nautical Twilight
Astronomical Twilight
Moon
Length of Visible Light
Length of Day
Tomorrow will be .
, % of the Moon is Illuminated

Today's Extremes

State Highs State Lows

Community

WunderPhotos

Upload Photos

1,824,935 photos uploaded!

WunderBlogs® & News

Nearby

Air Quality

  Air Quality AQ Index Pollutant
Not available.

Snow Depth

Station Depth Elevation

Earthquake Activity

City Distance Mag. Time & Date
Minimum magnitude displayed is 2.5.

Coastal Water Temperatures

Place Temperature

Stations

Nearby Weather Stations

Station Location Temp. Windchill Dew Point Humidity Wind Precip. Elev Updated Type